createdAt,value
2018-06-21T00:03:11.489Z,48.01
2018-06-21T00:07:50.026Z,47.78
2018-06-21T00:12:32.038Z,47.63
2018-06-21T00:17:10.673Z,47.39
2018-06-21T00:21:52.305Z,45.56
2018-06-21T00:26:30.855Z,46.60
2018-06-21T00:31:09.499Z,46.22
2018-06-21T00:35:51.771Z,41.66
2018-06-21T00:40:30.381Z,40.35
2018-06-21T00:45:12.739Z,39.12
2018-06-21T00:49:51.374Z,38.69
2018-06-21T00:54:33.472Z,40.55
2018-06-21T00:59:12.001Z,40.98
2018-06-21T01:03:54.369Z,44.93
2018-06-21T01:08:32.989Z,47.77
2018-06-21T01:13:14.845Z,50.26
2018-06-21T01:17:53.472Z,51.32
2018-06-21T01:22:32.230Z,53.46
2018-06-21T01:27:11.614Z,54.24
2018-06-21T01:31:50.483Z,52.74
2018-06-21T01:36:29.032Z,47.24
2018-06-21T01:41:07.614Z,49.51
2018-06-21T01:45:47.407Z,51.35
2018-06-21T01:50:25.935Z,52.88
2018-06-21T01:55:05.302Z,50.53
2018-06-21T01:59:43.768Z,45.43
2018-06-21T02:04:26.065Z,44.44
2018-06-21T02:09:08.625Z,49.85
2018-06-21T02:13:47.259Z,53.08
2018-06-21T02:18:25.913Z,49.36
2018-06-21T02:23:05.573Z,49.62
2018-06-21T02:27:44.241Z,51.45
2018-06-21T02:32:26.168Z,47.10
2018-06-21T02:37:04.766Z,44.67
2018-06-21T02:41:46.687Z,45.34
2018-06-21T02:46:25.310Z,46.54
2018-06-21T02:51:03.941Z,51.42
2018-06-21T02:55:42.529Z,52.87
2018-06-21T03:00:21.162Z,51.36
2018-06-21T03:05:02.843Z,52.18
2018-06-21T03:09:41.356Z,53.61
2018-06-21T03:14:23.200Z,53.45
2018-06-21T03:19:01.771Z,55.29
2018-06-21T03:23:43.846Z,56.95
2018-06-21T03:28:22.514Z,51.14
2018-06-21T03:33:02.262Z,47.63
2018-06-21T03:37:40.988Z,49.19
2018-06-21T03:42:23.370Z,52.37
2018-06-21T03:47:02.059Z,52.20
2018-06-21T03:51:44.661Z,55.49
2018-06-21T03:56:23.753Z,52.37
2018-06-21T04:01:06.376Z,48.70
2018-06-21T04:05:44.929Z,47.14
2018-06-21T04:10:23.607Z,47.08
2018-06-21T04:15:05.852Z,46.73
2018-06-21T04:19:44.285Z,47.83
2018-06-21T04:24:23.819Z,47.20
2018-06-21T04:29:02.426Z,46.95
2018-06-21T04:33:41.304Z,47.84
2018-06-21T04:38:19.979Z,52.42
2018-06-21T04:42:58.518Z,54.69
2018-06-21T04:47:37.070Z,56.11
2018-06-21T04:52:16.687Z,50.92
2018-06-21T04:56:55.182Z,50.37
2018-06-21T05:01:35.425Z,53.48
2018-06-21T05:06:14.017Z,53.73
2018-06-21T05:10:52.516Z,54.47
2018-06-21T05:15:31.201Z,54.67
2018-06-21T05:20:09.770Z,53.90
2018-06-21T05:24:49.222Z,53.87
2018-06-21T05:29:27.604Z,52.47
2018-06-21T05:34:14.247Z,53.87
2018-06-21T05:38:52.798Z,53.29
2018-06-21T05:43:35.149Z,52.72
2018-06-21T05:48:13.739Z,52.53
2018-06-21T05:52:53.525Z,52.00
2018-06-21T05:57:32.047Z,50.48
2018-06-21T06:02:10.853Z,51.00
2018-06-21T06:06:49.463Z,51.13
2018-06-21T06:11:28.120Z,49.67
2018-06-21T06:16:06.755Z,51.08
2018-06-21T06:20:45.242Z,50.22
2018-06-21T06:25:23.726Z,50.35
2018-06-21T06:30:02.258Z,49.94
2018-06-21T06:34:41.858Z,50.76
2018-06-21T06:39:21.550Z,48.06
2018-06-21T06:44:01.200Z,48.25
2018-06-21T06:48:39.851Z,45.04
2018-06-21T06:53:19.543Z,45.49
2018-06-21T06:57:58.124Z,46.32
2018-06-21T07:02:37.745Z,46.99
2018-06-21T07:07:16.220Z,45.99
2018-06-21T07:11:54.788Z,45.63
2018-06-21T07:16:33.495Z,45.41
2018-06-21T07:21:12.270Z,44.28
2018-06-21T07:25:51.710Z,44.49
2018-06-21T07:30:31.313Z,46.30
2018-06-21T07:35:09.912Z,44.15
2018-06-21T07:39:48.474Z,44.85
2018-06-21T07:44:30.961Z,46.20
2018-06-21T07:49:09.475Z,47.15
2018-06-21T07:53:48.073Z,45.98
2018-06-21T07:58:26.617Z,46.04
2018-06-21T08:03:08.342Z,46.58
2018-06-21T08:07:46.768Z,46.55
2018-06-21T08:12:28.296Z,45.89
2018-06-21T08:17:07.511Z,47.31
2018-06-21T08:21:49.393Z,45.64
2018-06-21T08:26:27.851Z,46.88
2018-06-21T08:31:07.294Z,44.01
2018-06-21T08:35:45.792Z,44.67
2018-06-21T08:40:27.961Z,44.06
2018-06-21T08:45:06.511Z,45.42
2018-06-21T08:49:44.977Z,46.68
2018-06-21T08:54:24.613Z,47.37
2018-06-21T08:59:03.159Z,48.66
2018-06-21T09:03:41.760Z,47.46
2018-06-21T09:08:20.322Z,45.62
2018-06-21T09:12:59.988Z,46.45
2018-06-21T09:17:38.445Z,44.08
2018-06-21T09:22:17.049Z,46.03
2018-06-21T09:26:55.626Z,46.52
2018-06-21T09:31:35.343Z,45.99
2018-06-21T09:36:13.866Z,47.49
2018-06-21T09:41:01.448Z,48.95
2018-06-21T09:45:45.357Z,48.39
2018-06-21T09:50:27.096Z,50.05
2018-06-21T09:55:05.710Z,47.77
2018-06-21T09:59:44.397Z,47.34
2018-06-21T10:04:23.058Z,47.22
2018-06-21T10:09:01.577Z,48.77
2018-06-21T10:13:43.749Z,48.40
2018-06-21T10:18:22.379Z,47.20
2018-06-21T10:23:04.316Z,47.56
2018-06-21T10:27:42.796Z,45.04
2018-06-21T10:32:22.442Z,45.01
2018-06-21T10:37:01.121Z,44.10
2018-06-21T10:41:41.469Z,45.52
2018-06-21T10:46:20.134Z,49.40
2018-06-21T10:50:58.724Z,48.01
2018-06-21T10:55:37.232Z,48.73
2018-06-21T11:00:16.737Z,45.87
2018-06-21T11:04:55.289Z,50.43
2018-06-21T11:09:33.828Z,51.69
2018-06-21T11:14:13.222Z,53.33
2018-06-21T11:18:51.990Z,52.07
2018-06-21T11:23:31.679Z,52.94
2018-06-21T11:28:10.345Z,52.21
2018-06-21T11:32:49.868Z,53.45
2018-06-21T11:37:28.454Z,52.03
2018-06-21T11:42:08.090Z,52.10
2018-06-21T11:46:46.779Z,53.28
2018-06-21T11:51:31.282Z,52.61
2018-06-21T11:56:09.744Z,49.93
2018-06-21T12:00:49.434Z,48.97
2018-06-21T12:05:27.905Z,47.65
2018-06-21T12:10:07.150Z,47.43
2018-06-21T12:14:45.602Z,46.29
2018-06-21T12:19:24.239Z,45.88
2018-06-21T12:24:04.504Z,43.33
2018-06-21T12:28:43.023Z,44.64
2018-06-21T12:33:23.361Z,43.15
2018-06-21T12:38:01.957Z,42.23
2018-06-21T12:42:41.502Z,41.34
2018-06-21T12:47:20.047Z,39.90
2018-06-21T12:51:59.897Z,41.49
2018-06-21T12:56:38.702Z,42.79
2018-06-21T13:01:18.034Z,41.08
2018-06-21T13:05:56.239Z,40.22
2018-06-21T13:10:46.547Z,39.74
2018-06-21T13:15:25.194Z,40.15
2018-06-21T13:20:07.230Z,40.30
2018-06-21T13:24:45.840Z,39.32
2018-06-21T13:29:24.399Z,37.57
2018-06-21T13:34:03.010Z,39.29
2018-06-21T13:38:41.654Z,38.01
2018-06-21T13:43:21.430Z,38.67
2018-06-21T13:48:00.082Z,38.71
2018-06-21T13:52:39.726Z,38.72
2018-06-21T13:57:18.318Z,38.61
2018-06-21T14:02:00.599Z,38.09
2018-06-21T14:06:39.219Z,37.64
2018-06-21T14:11:17.957Z,37.91
2018-06-21T14:15:56.410Z,36.66
2018-06-21T14:20:40.032Z,37.79
2018-06-21T14:25:18.786Z,42.74
2018-06-21T14:29:58.444Z,44.75
2018-06-21T14:34:37.162Z,45.76
2018-06-21T14:39:16.071Z,47.97
2018-06-21T14:43:55.869Z,47.65
2018-06-21T14:48:34.619Z,47.24
2018-06-21T14:53:17.188Z,45.75
2018-06-21T14:57:55.837Z,46.25
2018-06-21T15:02:37.863Z,46.67
2018-06-21T15:07:16.497Z,47.06
2018-06-21T15:11:56.318Z,47.32
2018-06-21T15:16:34.902Z,46.56
2018-06-21T15:21:15.303Z,46.81
2018-06-21T15:25:53.865Z,46.88
2018-06-21T15:30:35.926Z,47.28
2018-06-21T15:35:14.498Z,46.60
2018-06-21T15:39:54.123Z,47.04
2018-06-21T15:44:32.634Z,47.49
2018-06-21T15:49:11.285Z,47.94
2018-06-21T15:53:49.913Z,47.78
2018-06-21T15:58:28.553Z,47.40
2018-06-21T16:03:07.193Z,48.07
2018-06-21T16:07:45.767Z,49.36
2018-06-21T16:12:27.486Z,48.71
2018-06-21T16:17:06.151Z,48.42
2018-06-21T16:21:46.064Z,49.60
2018-06-21T16:26:24.730Z,50.23
2018-06-21T16:31:04.725Z,50.67
2018-06-21T16:35:43.323Z,50.94
2018-06-21T16:40:24.903Z,50.39
2018-06-21T16:45:03.394Z,50.23
2018-06-21T16:49:45.405Z,50.16
2018-06-21T16:54:24.043Z,50.47
2018-06-21T16:59:03.732Z,51.35
2018-06-21T17:03:42.246Z,51.27
2018-06-21T17:08:20.826Z,51.85
2018-06-21T17:13:02.621Z,51.41
2018-06-21T17:17:41.542Z,51.63
2018-06-21T17:22:23.604Z,52.19
2018-06-21T17:27:04.214Z,51.42
2018-06-21T17:31:45.994Z,52.43
2018-06-21T17:36:24.698Z,51.71
2018-06-21T17:41:04.236Z,51.73
2018-06-21T17:45:43.574Z,52.78
2018-06-21T17:50:25.473Z,53.11
2018-06-21T17:55:04.104Z,52.91
2018-06-21T17:59:46.366Z,53.15
2018-06-21T18:04:24.981Z,53.61
2018-06-21T18:09:04.536Z,53.55
2018-06-21T18:13:43.226Z,54.23
2018-06-21T18:18:21.633Z,54.57
2018-06-21T18:23:00.398Z,54.31
2018-06-21T18:27:39.973Z,53.57
2018-06-21T18:32:22.498Z,55.06
2018-06-21T18:37:01.011Z,54.38
2018-06-21T18:41:40.796Z,54.34
2018-06-21T18:46:19.601Z,54.72
2018-06-21T18:50:58.160Z,55.44
2018-06-21T18:55:37.228Z,55.59
2018-06-21T19:00:15.984Z,55.73
2018-06-21T19:04:55.843Z,55.11
2018-06-21T19:09:40.502Z,55.41
2018-06-21T19:14:19.142Z,55.05
2018-06-21T19:18:58.092Z,55.42
2018-06-21T19:23:37.130Z,55.89
2018-06-21T19:28:16.298Z,56.09
2018-06-21T19:33:03.824Z,55.98
2018-06-21T19:37:44.226Z,57.24
2018-06-21T19:42:24.102Z,58.34
2018-06-21T19:47:03.134Z,55.12
2018-06-21T19:51:42.877Z,55.45
2018-06-21T19:56:22.259Z,55.81
2018-06-21T20:01:02.237Z,56.69
2018-06-21T20:05:41.097Z,56.62
2018-06-21T20:10:21.061Z,58.53
2018-06-21T20:14:59.972Z,58.47
2018-06-21T20:19:44.216Z,59.04
2018-06-21T20:24:23.103Z,58.70
2018-06-21T20:29:02.795Z,58.41
2018-06-21T20:33:43.059Z,58.27
2018-06-21T20:38:21.842Z,58.96
2018-06-21T20:43:04.095Z,60.12
2018-06-21T20:47:42.966Z,61.25
2018-06-21T20:52:29.508Z,59.06
2018-06-21T20:57:08.300Z,59.17
2018-06-21T21:01:50.623Z,58.49
2018-06-21T21:06:29.432Z,58.46
2018-06-21T21:11:11.340Z,58.89
2018-06-21T21:15:50.123Z,57.84
2018-06-21T21:20:32.526Z,59.58
2018-06-21T21:25:11.192Z,59.09
2018-06-21T21:29:51.163Z,62.15
2018-06-21T21:34:30.127Z,64.32
2018-06-21T21:39:10.546Z,61.19
2018-06-21T21:43:49.250Z,59.60
2018-06-21T21:48:28.032Z,59.68
2018-06-21T21:53:06.684Z,58.35
2018-06-21T21:57:45.355Z,58.48
2018-06-21T22:02:23.991Z,59.01
2018-06-21T22:07:02.849Z,59.68
2018-06-21T22:11:42.713Z,58.80
2018-06-21T22:16:21.243Z,59.13
2018-06-21T22:21:00.883Z,60.21
2018-06-21T22:25:39.505Z,59.92
2018-06-21T22:30:21.167Z,60.03
2018-06-21T22:34:59.823Z,61.53
2018-06-21T22:39:43.535Z,61.41
2018-06-21T22:44:22.247Z,60.96
2018-06-21T22:49:01.990Z,61.54
2018-06-21T22:53:40.950Z,60.03
2018-06-21T22:58:20.765Z,59.37
2018-06-21T23:02:59.585Z,60.78
2018-06-21T23:07:38.296Z,62.44
2018-06-21T23:12:20.412Z,62.42
2018-06-21T23:16:59.274Z,61.87
2018-06-21T23:21:41.963Z,62.31
2018-06-21T23:26:20.821Z,62.57
2018-06-21T23:31:01.397Z,62.63
2018-06-21T23:35:40.080Z,62.56
2018-06-21T23:40:19.877Z,62.16
2018-06-21T23:44:58.658Z,61.98
2018-06-21T23:49:38.460Z,61.96
2018-06-21T23:54:17.194Z,61.63
2018-06-21T23:58:59.914Z,61.46
